Time;durP1;ratioP1;P1;durP2;ratioP2;P2;SDS_P1;SDS_P2;PMS_P1;PMS_P2;Temp;Humidity;BMP_temperature;BMP_pressure;BME280_temperature;BME280_humidity;BME280_pressure;Samples;Min_cycle;Max_cycle;Signal;HPM_P1;HPM_P2
2023/06/09 00:02:23;;;;;;;6.68;4.40;;;;;;;17.88;95.00;100220.94;4935470;29;20050;-68
2023/06/09 00:04:49;;;;;;;7.95;4.10;;;;;;;17.82;94.51;100210.47;4935618;29;20470;-67
2023/06/09 00:07:18;;;;;;;7.43;4.20;;;;;;;17.45;94.48;100149.44;4935219;29;20043;-67
2023/06/09 00:09:44;;;;;;;11.63;4.70;;;;;;;17.74;95.07;100236.56;4935474;29;20457;-68
2023/06/09 00:12:10;;;;;;;9.65;4.63;;;;;;;16.96;94.78;100099.69;4935618;29;20047;-68
2023/06/09 00:14:35;;;;;;;9.30;4.63;;;;;;;17.26;94.61;100156.31;4935564;29;20035;-68
2023/06/09 00:17:01;;;;;;;7.55;4.70;;;;;;;17.73;94.33;100216.53;4918385;29;20032;-67
2023/06/09 00:19:27;;;;;;;7.82;4.20;;;;;;;17.76;93.99;100212.19;4935004;29;20114;-67
2023/06/09 00:21:53;;;;;;;5.65;4.13;;;;;;;17.70;93.33;100195.66;4935146;29;20083;-69
2023/06/09 00:24:21;;;;;;;5.47;4.18;;;;;;;17.66;93.60;100201.69;4935114;29;20415;-68
2023/06/09 00:26:51;;;;;;;8.02;4.63;;;;;;;17.65;93.72;100208.66;4935326;29;20197;-68
2023/06/09 00:29:20;;;;;;;7.60;4.43;;;;;;;17.66;93.67;100217.38;4934827;29;20027;-69
2023/06/09 00:31:46;;;;;;;9.52;4.80;;;;;;;17.63;93.94;100218.22;4935051;29;20521;-68
2023/06/09 00:34:11;;;;;;;6.78;4.63;;;;;;;17.58;93.76;100217.34;4935060;29;20111;-69
2023/06/09 00:36:37;;;;;;;8.10;4.80;;;;;;;17.49;93.92;100212.09;4934020;29;20032;-68
2023/06/09 00:39:03;;;;;;;7.32;4.70;;;;;;;17.32;94.10;100178.97;4917870;29;20171;-68
2023/06/09 00:41:28;;;;;;;8.43;4.90;;;;;;;17.50;93.87;100203.41;4934707;29;20027;-68
2023/06/09 00:43:55;;;;;;;8.00;5.20;;;;;;;17.40;94.01;100195.53;4901069;29;20047;-68
2023/06/09 00:46:21;;;;;;;7.18;4.45;;;;;;;17.34;94.12;100198.09;4935075;29;20059;-67
2023/06/09 00:48:47;;;;;;;6.43;4.70;;;;;;;17.32;94.57;100206.78;4935096;29;20391;-68
2023/06/09 00:51:12;;;;;;;8.27;4.57;;;;;;;17.27;94.73;100197.22;4917478;29;20142;-69
2023/06/09 00:53:38;;;;;;;8.02;4.45;;;;;;;17.11;94.73;100179.75;4934569;29;20130;-68
2023/06/09 00:56:05;;;;;;;6.65;4.63;;;;;;;16.80;94.97;100135.19;4934702;29;20027;-68
2023/06/09 00:58:32;;;;;;;6.97;4.70;;;;;;;17.02;94.42;100145.78;4934545;29;20031;-70
2023/06/09 01:00:58;;;;;;;9.43;4.80;;;;;;;17.46;93.31;100208.59;4934844;29;20042;-68
2023/06/09 01:03:26;;;;;;;9.60;4.63;;;;;;;17.20;92.86;100174.56;4934812;29;20034;-68
2023/06/09 01:06:12;;;;;;;7.70;5.20;;;;;;;17.29;93.24;100205.03;4934319;29;20045;-68
2023/06/09 01:08:46;;;;;;;8.10;4.80;;;;;;;16.79;93.99;100139.53;4934288;29;20043;-68
2023/06/09 01:11:21;;;;;;;6.60;4.60;;;;;;;17.14;94.21;100203.22;4934421;29;20056;-68
2023/06/09 01:13:52;;;;;;;9.23;5.25;;;;;;;17.08;95.47;100213.59;4902665;29;20043;-68
2023/06/09 01:16:23;;;;;;;7.45;5.03;;;;;;;17.06;95.15;100203.19;4933986;29;20028;-68
2023/06/09 01:18:51;;;;;;;9.98;5.07;;;;;;;16.84;96.04;100206.47;4934014;29;20035;-68
2023/06/09 01:21:35;;;;;;;7.65;4.70;;;;;;;16.73;96.89;100211.59;4934046;29;20509;-68
2023/06/09 01:24:32;;;;;;;7.88;4.82;;;;;;;16.37;97.66;100171.38;4934516;29;20032;-68
2023/06/09 01:27:03;;;;;;;8.30;5.10;;;;;;;16.57;97.53;100203.66;4856600;29;20041;-68
2023/06/09 01:29:32;;;;;;;6.97;4.55;;;;;;;16.44;97.96;100207.91;4856394;29;20049;-68
2023/06/09 01:31:59;;;;;;;;;;;;;;;16.22;99.51;100204.22;4856972;29;20724;-67
2023/06/09 01:34:25;;;;;;;6.88;4.60;;;;;;;16.03;100.00;100192.75;4856500;29;19919;-68
2023/06/09 01:36:52;;;;;;;6.43;4.55;;;;;;;16.04;100.00;100211.84;4856204;29;20037;-68
2023/06/09 01:39:18;;;;;;;7.75;4.78;;;;;;;15.91;100.00;100205.66;4856306;29;20035;-68
2023/06/09 01:41:44;;;;;;;5.93;4.65;;;;;;;15.24;100.00;100134.59;4840660;29;20461;-67
2023/06/09 01:44:09;;;;;;;7.10;4.70;;;;;;;15.57;100.00;100218.25;4856002;29;20041;-69
2023/06/09 01:46:35;;;;;;;8.55;4.30;;;;;;;15.46;100.00;100197.28;4840022;29;20076;-68
2023/06/09 01:49:15;;;;;;;7.05;4.68;;;;;;;15.49;100.00;100218.16;4855965;29;20538;-68
2023/06/09 01:51:51;;;;;;;10.02;4.70;;;;;;;15.74;100.00;100219.31;4856159;29;20493;-68
2023/06/09 01:54:22;;;;;;;6.47;4.22;;;;;;;15.30;100.00;100155.50;4856286;29;20057;-67
2023/06/09 01:56:57;;;;;;;7.18;4.10;;;;;;;15.15;100.00;100148.38;4856153;29;20129;-68
2023/06/09 01:59:26;;;;;;;6.18;4.25;;;;;;;15.56;100.00;100217.34;4855646;29;20081;-69
2023/06/09 02:01:53;;;;;;;7.53;4.72;;;;;;;15.46;100.00;100190.34;4868189;29;20059;-68
2023/06/09 02:04:23;;;;;;;6.88;4.85;;;;;;;15.50;100.00;100230.28;4933362;29;20028;-68
2023/06/09 02:06:49;;;;;;;6.50;4.60;;;;;;;15.46;100.00;100220.69;4933275;29;20032;-68
2023/06/09 02:09:16;;;;;;;6.28;4.38;;;;;;;15.58;100.00;100207.00;4933313;29;20129;-67
2023/06/09 02:11:41;;;;;;;6.72;4.40;;;;;;;15.64;100.00;100202.72;4933724;29;20449;-68
2023/06/09 02:14:07;;;;;;;6.55;4.65;;;;;;;15.77;100.00;100215.88;4933390;29;20510;-71
2023/06/09 02:16:32;;;;;;;10.82;4.50;;;;;;;15.90;99.41;100215.19;4933331;29;20059;-67
2023/06/09 02:18:58;;;;;;;10.05;5.15;;;;;;;15.96;98.59;100227.38;4933270;29;20027;-69
2023/06/09 02:21:23;;;;;;;9.80;4.70;;;;;;;15.64;99.56;100202.72;4933355;29;20028;-68
2023/06/09 02:23:49;;;;;;;6.95;4.63;;;;;;;15.37;100.00;100152.09;4933266;29;20056;-67
2023/06/09 02:26:15;;;;;;;7.22;4.68;;;;;;;15.87;99.92;100235.13;4933319;29;20036;-68
2023/06/09 02:28:40;;;;;;;9.90;4.90;;;;;;;15.65;100.00;100233.09;4933473;29;20028;-69
2023/06/09 02:31:06;;;;;;;8.98;4.70;;;;;;;15.47;100.00;100232.84;4932707;29;20036;-68
2023/06/09 02:33:31;;;;;;;8.88;4.78;;;;;;;15.53;100.00;100244.22;4933155;29;20035;-68
2023/06/09 02:35:57;;;;;;;6.03;4.63;;;;;;;15.65;100.00;100238.31;4933012;29;20035;-67
2023/06/09 02:38:24;;;;;;;11.80;4.68;;;;;;;15.78;100.00;100241.91;4933266;29;20595;-69
2023/06/09 02:40:50;;;;;;;7.15;4.05;;;;;;;15.41;99.57;100167.75;4932685;29;20450;-67
2023/06/09 02:43:15;;;;;;;8.32;5.00;;;;;;;15.78;99.95;100235.84;4932932;29;20042;-68
2023/06/09 02:45:41;;;;;;;7.88;4.75;;;;;;;15.70;100.00;100230.53;4932769;29;20135;-68
2023/06/09 02:48:06;;;;;;;9.10;4.90;;;;;;;15.77;99.77;100221.94;4933051;29;20031;-68
2023/06/09 02:50:32;;;;;;;11.02;4.93;;;;;;;15.68;100.00;100237.47;4932997;29;20100;-68
2023/06/09 02:52:57;;;;;;;9.38;4.90;;;;;;;15.07;100.00;100156.91;4933005;29;20034;-67
2023/06/09 02:55:23;;;;;;;8.88;4.40;;;;;;;15.27;100.00;100233.44;4932740;29;20028;-67
2023/06/09 02:57:48;;;;;;;10.32;5.45;;;;;;;15.24;100.00;100228.22;4932749;29;20557;-67
2023/06/09 03:00:15;;;;;;;5.57;4.35;;;;;;;15.24;100.00;100230.81;4936354;29;20035;-68
2023/06/09 03:02:41;;;;;;;8.77;4.78;;;;;;;15.34;100.00;100239.63;4936603;29;20034;-67
2023/06/09 03:05:09;;;;;;;6.82;4.78;;;;;;;14.95;100.00;100162.81;4936727;29;20028;-68
2023/06/09 03:07:34;;;;;;;9.13;4.90;;;;;;;15.49;100.00;100239.81;4913451;29;20033;-68
2023/06/09 03:10:00;;;;;;;12.02;5.75;;;;;;;15.13;100.00;100246.25;4899086;29;20044;-68
2023/06/09 03:12:25;;;;;;;8.50;5.30;;;;;;;14.95;100.00;100256.38;4898482;29;20036;-68
2023/06/09 03:14:51;;;;;;;9.00;5.30;;;;;;;14.79;100.00;100247.47;4898175;29;20105;-68
2023/06/09 03:17:17;;;;;;;11.23;5.55;;;;;;;14.65;100.00;100235.13;4898498;29;20029;-69
2023/06/09 03:19:42;;;;;;;11.27;5.72;;;;;;;14.91;100.00;100252.84;4931290;29;20091;-68
2023/06/09 03:22:08;;;;;;;10.27;5.18;;;;;;;14.94;100.00;100245.13;4936499;29;20418;-68
2023/06/09 03:24:33;;;;;;;6.43;4.90;;;;;;;15.01;100.00;100252.13;4886532;29;20036;-68
2023/06/09 03:26:59;;;;;;;9.10;5.35;;;;;;;15.14;100.00;100254.94;4935973;29;20032;-68
2023/06/09 03:29:25;;;;;;;9.23;5.15;;;;;;;15.27;100.00;100254.25;4935726;29;20059;-69
2023/06/09 03:31:50;;;;;;;6.60;4.72;;;;;;;15.45;100.00;100244.97;4936098;29;20050;-68
2023/06/09 03:34:16;;;;;;;5.97;4.60;;;;;;;15.68;99.35;100255.69;4934557;29;20115;-68
2023/06/09 03:36:41;;;;;;;7.78;5.78;;;;;;;15.71;99.02;100253.09;4898030;29;20040;-68
2023/06/09 03:39:07;;;;;;;14.35;5.65;;;;;;;15.55;100.00;100249.41;4898257;29;20062;-67
2023/06/09 03:41:33;;;;;;;8.00;5.47;;;;;;;15.51;100.00;100248.53;4898226;29;20115;-68
2023/06/09 03:43:59;;;;;;;12.07;5.90;;;;;;;15.37;100.00;100239.66;4898048;29;20024;-69
2023/06/09 03:46:24;;;;;;;12.05;5.55;;;;;;;15.46;100.00;100257.13;4916953;29;20126;-68
2023/06/09 03:48:51;;;;;;;12.38;6.00;;;;;;;15.48;100.00;100247.63;4916881;29;20403;-68
2023/06/09 03:51:17;;;;;;;9.68;5.65;;;;;;;15.50;100.00;100238.97;4916894;29;20056;-68
2023/06/09 03:53:42;;;;;;;9.88;5.85;;;;;;;15.72;100.00;100251.38;4917176;29;20111;-68
2023/06/09 03:56:08;;;;;;;6.32;5.05;;;;;;;15.74;100.00;100244.44;4917110;29;20036;-68
2023/06/09 03:58:33;;;;;;;7.60;5.47;;;;;;;15.73;100.00;100254.00;4916401;29;20648;-68
2023/06/09 04:00:59;;;;;;;9.68;5.35;;;;;;;15.53;100.00;100199.13;4916904;29;20052;-66
2023/06/09 04:03:24;;;;;;;7.70;5.90;;;;;;;15.96;100.00;100245.63;4914692;29;20477;-68
2023/06/09 04:05:50;;;;;;;7.82;5.60;;;;;;;16.14;100.00;100240.59;4916214;29;20043;-68
2023/06/09 04:08:16;;;;;;;8.95;5.57;;;;;;;16.16;98.99;100225.00;4914552;29;20032;-68
2023/06/09 04:10:42;;;;;;;15.43;6.30;;;;;;;16.47;99.26;100246.13;4915425;29;20596;-68
2023/06/09 04:13:09;;;;;;;11.45;6.18;;;;;;;16.49;98.96;100236.59;4916014;29;20032;-69
2023/06/09 04:15:34;;;;;;;10.25;6.45;;;;;;;16.44;99.45;100254.78;4916280;29;20032;-68
2023/06/09 04:18:01;;;;;;;12.77;5.88;;;;;;;16.50;100.00;100248.78;4916697;29;20164;-68
2023/06/09 04:20:26;;;;;;;9.77;6.75;;;;;;;16.66;100.00;100260.22;4916223;29;20071;-68
2023/06/09 04:22:52;;;;;;;9.68;7.20;;;;;;;16.77;100.00;100268.13;4916021;29;20078;-67
2023/06/09 04:25:27;;;;;;;12.93;7.20;;;;;;;16.88;100.00;100273.41;4916133;29;20485;-68
2023/06/09 04:27:54;;;;;;;12.38;8.00;;;;;;;16.72;100.00;100259.38;4906185;29;20032;-68
2023/06/09 04:30:25;;;;;;;12.50;8.07;;;;;;;16.87;100.00;100269.91;4899071;29;20692;-69
2023/06/09 04:32:52;;;;;;;11.82;8.45;;;;;;;16.98;100.00;100265.72;4916068;29;20039;-68
2023/06/09 04:35:19;;;;;;;16.25;9.45;;;;;;;17.07;100.00;100262.31;4915999;29;20040;-68
2023/06/09 04:37:45;;;;;;;19.30;9.05;;;;;;;17.14;100.00;100264.06;4916228;29;20414;-68
2023/06/09 04:40:14;;;;;;;14.00;9.95;;;;;;;17.20;100.00;100271.06;4915917;29;20044;-68
2023/06/09 04:42:39;;;;;;;12.68;9.00;;;;;;;17.16;100.00;100253.66;4915953;29;20035;-68
2023/06/09 04:45:05;;;;;;;14.88;9.48;;;;;;;16.88;100.00;100214.31;4915893;29;20044;-68
2023/06/09 04:47:31;;;;;;;12.57;9.18;;;;;;;17.13;100.00;100258.84;4915788;29;20043;-67
2023/06/09 04:49:57;;;;;;;18.23;8.55;;;;;;;17.03;100.00;100237.03;4915703;29;20040;-67
2023/06/09 04:52:22;;;;;;;16.02;9.70;;;;;;;17.13;100.00;100269.28;4915975;29;20451;-67
2023/06/09 04:54:51;;;;;;;17.58;8.20;;;;;;;17.32;100.00;100277.22;4915177;29;20043;-67
2023/06/09 04:57:17;;;;;;;9.40;5.93;;;;;;;17.43;100.00;100272.94;4915880;29;20032;-68
2023/06/09 04:59:45;;;;;;;10.75;6.38;;;;;;;17.46;100.00;100270.38;4915811;29;20494;-68
2023/06/09 05:02:11;;;;;;;9.77;6.45;;;;;;;17.55;100.00;100261.72;4915577;29;20073;-68
2023/06/09 05:04:36;;;;;;;12.75;5.32;;;;;;;17.73;100.00;100273.97;4909073;29;20037;-68
2023/06/09 05:07:02;;;;;;;9.70;5.72;;;;;;;17.80;100.00;100278.34;4911191;29;20028;-68
2023/06/09 05:09:28;;;;;;;11.77;5.82;;;;;;;17.85;100.00;100276.63;4896493;29;20479;-67
2023/06/09 05:11:53;;;;;;;8.07;6.18;;;;;;;17.91;100.00;100276.66;4896582;29;20088;-68
2023/06/09 05:14:19;;;;;;;10.23;5.70;;;;;;;17.99;100.00;100275.84;4896536;29;20399;-68
2023/06/09 05:16:45;;;;;;;9.80;5.72;;;;;;;18.00;98.96;100261.94;4896354;29;20028;-68
2023/06/09 05:19:11;;;;;;;11.30;5.78;;;;;;;18.12;99.00;100269.81;4896432;29;20043;-67
2023/06/09 05:21:37;;;;;;;9.60;6.05;;;;;;;18.19;99.91;100287.22;4895959;29;20411;-68
2023/06/09 05:24:03;;;;;;;10.00;5.53;;;;;;;18.04;100.00;100284.56;4896357;29;20085;-67
2023/06/09 05:26:29;;;;;;;9.50;5.75;;;;;;;17.92;100.00;100264.50;4896326;29;20480;-67
2023/06/09 05:28:55;;;;;;;11.25;5.85;;;;;;;17.95;100.00;100274.97;4896329;29;20033;-67
2023/06/09 05:31:20;;;;;;;9.18;5.30;;;;;;;18.07;99.82;100279.38;4900676;29;20032;-65
2023/06/09 05:33:46;;;;;;;9.90;5.50;;;;;;;18.19;99.08;100278.50;4905732;29;20036;-67
2023/06/09 05:36:12;;;;;;;12.25;5.97;;;;;;;18.32;99.94;100284.63;4908310;29;20076;-68
2023/06/09 05:38:38;;;;;;;9.32;5.60;;;;;;;18.42;97.84;100262.91;4863003;29;20040;-67
2023/06/09 05:41:03;;;;;;;11.80;5.28;;;;;;;18.58;97.31;100279.47;4905043;29;20484;-69
2023/06/09 05:43:29;;;;;;;9.77;5.10;;;;;;;18.23;96.37;100213.22;4914360;29;20467;-67
2023/06/09 05:45:56;;;;;;;9.98;4.45;;;;;;;18.69;96.66;100276.84;4909701;29;20052;-68
2023/06/09 05:48:21;;;;;;;8.07;3.90;;;;;;;18.76;95.91;100275.97;4913507;29;20048;-68
2023/06/09 05:50:47;;;;;;;7.07;3.95;;;;;;;18.87;92.73;100274.22;4914918;29;20036;-68
2023/06/09 05:53:12;;;;;;;10.70;4.25;;;;;;;18.97;91.95;100275.13;4914647;29;20119;-68
2023/06/09 05:55:38;;;;;;;7.60;4.47;;;;;;;19.07;92.98;100270.78;4914835;29;20040;-69
2023/06/09 05:58:04;;;;;;;8.68;3.60;;;;;;;18.92;90.86;100262.06;4914827;29;20032;-68
2023/06/09 06:00:30;;;;;;;5.32;3.63;;;;;;;19.04;91.64;100281.22;4914565;29;20130;-67
2023/06/09 06:02:57;;;;;;;7.40;4.00;;;;;;;18.96;92.65;100283.00;4896276;29;20033;-68
2023/06/09 06:05:22;;;;;;;17.33;5.05;;;;;;;18.66;92.37;100245.47;4895858;29;20032;-68
2023/06/09 06:07:48;;;;;;;8.55;3.92;;;;;;;18.75;94.53;100280.34;4895557;29;20051;-68
2023/06/09 06:10:14;;;;;;;7.38;3.53;;;;;;;18.95;93.76;100276.88;4912532;29;20383;-67
2023/06/09 06:12:39;;;;;;;6.85;3.78;;;;;;;19.16;91.44;100275.13;4933285;29;20055;-67
2023/06/09 06:15:05;;;;;;;8.68;3.70;;;;;;;19.26;89.72;100276.84;4933646;29;20514;-67
2023/06/09 06:17:31;;;;;;;5.53;3.72;;;;;;;19.26;91.53;100270.75;4933295;29;20592;-67
2023/06/09 06:19:57;;;;;;;6.57;3.60;;;;;;;19.27;90.26;100275.13;4932710;29;20067;-68
2023/06/09 06:22:23;;;;;;;5.75;3.50;;;;;;;19.08;90.33;100207.09;4932944;29;20038;-68
2023/06/09 06:24:48;;;;;;;6.20;3.53;;;;;;;19.70;90.02;100273.22;4926417;29;20471;-69
2023/06/09 06:27:13;;;;;;;7.57;3.97;;;;;;;19.92;86.35;100272.31;4901634;29;20044;-68
2023/06/09 06:29:39;;;;;;;9.65;3.50;;;;;;;20.04;86.52;100272.25;4895226;29;20084;-67
2023/06/09 06:32:08;;;;;;;9.07;3.60;;;;;;;20.15;85.77;100267.81;4893881;29;20036;-66
2023/06/09 06:34:34;;;;;;;12.43;3.95;;;;;;;20.34;84.96;100276.44;4899693;29;20466;-67
2023/06/09 06:37:00;;;;;;;7.90;3.45;;;;;;;20.42;82.17;100275.50;4894933;29;20112;-68
2023/06/09 06:39:25;;;;;;;11.88;3.88;;;;;;;20.26;85.85;100266.88;4895089;29;20033;-67
2023/06/09 06:41:51;;;;;;;13.30;3.92;;;;;;;20.32;85.22;100269.44;4895097;29;20115;-68
2023/06/09 06:44:16;;;;;;;8.73;3.50;;;;;;;20.40;85.13;100258.91;4895131;29;20041;-68
2023/06/09 06:46:42;;;;;;;7.97;3.80;;;;;;;20.60;84.79;100259.66;4895126;29;20113;-67
2023/06/09 06:49:07;;;;;;;7.30;3.40;;;;;;;20.65;85.48;100246.50;4895248;29;20120;-68
2023/06/09 06:51:33;;;;;;;8.38;3.42;;;;;;;20.90;84.82;100267.28;4877871;29;20032;-67
2023/06/09 06:53:58;;;;;;;6.78;3.35;;;;;;;21.06;85.78;100255.78;4895174;29;20036;-68
2023/06/09 06:56:25;;;;;;;6.07;3.90;;;;;;;21.19;84.00;100266.16;4888841;29;20399;-68
2023/06/09 06:58:52;;;;;;;13.38;3.85;;;;;;;21.28;81.14;100260.81;4875960;29;20029;-68
2023/06/09 07:01:20;;;;;;;7.25;3.50;;;;;;;21.29;81.98;100254.66;4876421;29;20503;-68
2023/06/09 07:03:46;;;;;;;9.07;4.22;;;;;;;21.52;81.21;100253.53;4876273;29;20803;-68
2023/06/09 07:06:12;;;;;;;9.52;3.65;;;;;;;21.61;80.13;100258.72;4876238;29;20488;-68
2023/06/09 07:08:37;;;;;;;8.82;3.40;;;;;;;21.72;80.72;100255.94;4876194;29;20025;-68
2023/06/09 07:11:03;;;;;;;8.02;4.00;;;;;;;21.75;79.59;100258.56;4876409;29;20049;-69
2023/06/09 07:13:28;;;;;;;8.93;3.83;;;;;;;21.87;78.40;100258.41;4876419;29;20041;-68
2023/06/09 07:15:54;;;;;;;7.18;3.45;;;;;;;21.99;76.76;100249.47;4875027;29;20468;-67
2023/06/09 07:18:19;;;;;;;6.40;3.38;;;;;;;22.06;79.24;100255.53;4875920;29;20032;-67
2023/06/09 07:20:47;;;;;;;7.28;3.72;;;;;;;21.94;80.38;100248.66;4858357;29;20059;-68
2023/06/09 07:23:13;;;;;;;10.55;3.67;;;;;;;21.77;81.11;100235.75;4876295;29;20032;-68
2023/06/09 07:25:38;;;;;;;11.68;3.83;;;;;;;21.87;77.65;100252.25;4876276;29;20033;-67
2023/06/09 07:28:04;;;;;;;8.80;3.70;;;;;;;21.97;78.57;100241.59;4894158;29;20024;-68
2023/06/09 07:30:29;;;;;;;7.88;3.58;;;;;;;21.89;79.54;100245.22;4894749;29;20029;-67
2023/06/09 07:32:54;;;;;;;7.03;3.28;;;;;;;21.79;79.35;100219.09;4894666;29;20025;-68
2023/06/09 07:35:21;;;;;;;7.03;3.70;;;;;;;22.10;78.63;100237.03;4894823;29;20124;-68
2023/06/09 07:37:48;;;;;;;5.40;3.40;;;;;;;22.24;76.53;100238.59;4893568;29;20194;-68
2023/06/09 07:40:13;;;;;;;8.43;3.28;;;;;;;22.26;76.04;100208.75;4876784;29;20076;-67
2023/06/09 07:42:38;;;;;;;5.65;3.13;;;;;;;22.56;75.30;100239.91;4894535;29;20117;-68
2023/06/09 07:45:04;;;;;;;5.85;2.80;;;;;;;22.63;74.68;100236.28;4896066;29;20057;-67
2023/06/09 07:47:30;;;;;;;9.15;3.05;;;;;;;22.72;72.80;100236.13;4897690;29;20059;-67
2023/06/09 07:49:55;;;;;;;5.97;3.10;;;;;;;22.71;71.57;100215.94;4898801;29;20033;-67
2023/06/09 07:52:21;;;;;;;7.60;2.92;;;;;;;22.76;72.76;100237.78;4917121;29;20124;-68
2023/06/09 07:54:46;;;;;;;5.72;3.38;;;;;;;22.85;72.60;100235.91;4898000;29;20039;-68
2023/06/09 07:57:12;;;;;;;8.85;3.45;;;;;;;22.52;73.11;100165.41;4896822;29;20037;-67
2023/06/09 07:59:37;;;;;;;4.72;3.25;;;;;;;22.99;71.49;100238.28;4897953;29;20448;-67
2023/06/09 08:02:03;;;;;;;7.50;3.20;;;;;;;22.97;69.52;100225.16;4897957;29;20468;-68
2023/06/09 08:04:29;;;;;;;5.65;3.05;;;;;;;23.02;70.78;100228.56;4906044;29;20093;-67
2023/06/09 08:06:58;;;;;;;11.48;3.17;;;;;;;23.13;71.69;100217.84;4935547;29;20044;-67
2023/06/09 08:09:25;;;;;;;4.93;3.08;;;;;;;23.31;69.80;100228.94;4935546;29;20032;-67
2023/06/09 08:11:50;;;;;;;7.22;3.67;;;;;;;23.34;72.90;100236.78;4902626;29;20091;-67
2023/06/09 08:14:17;;;;;;;5.43;3.28;;;;;;;23.27;70.20;100207.06;4935479;29;20103;-68
2023/06/09 08:16:43;;;;;;;7.20;3.35;;;;;;;23.49;68.57;100232.97;4935509;29;20497;-67
2023/06/09 08:19:08;;;;;;;8.57;3.60;;;;;;;23.54;71.24;100231.09;4935370;29;20066;-68
2023/06/09 08:21:34;;;;;;;10.82;3.80;;;;;;;23.59;72.07;100234.53;4935502;29;20063;-67
2023/06/09 08:23:59;;;;;;;9.02;3.30;;;;;;;23.70;64.86;100221.13;4935345;29;20028;-68
2023/06/09 08:26:25;;;;;;;7.35;3.40;;;;;;;23.72;67.35;100225.44;4935539;29;20095;-68
2023/06/09 08:28:50;;;;;;;9.98;3.15;;;;;;;23.77;66.86;100221.88;4935441;29;20398;-68
2023/06/09 08:31:16;;;;;;;4.63;2.72;;;;;;;23.83;60.83;100217.31;4935004;29;20031;-67
2023/06/09 08:33:42;;;;;;;7.20;2.60;;;;;;;23.89;64.42;100216.34;4906998;29;20051;-66
2023/06/09 08:36:07;;;;;;;7.05;2.95;;;;;;;23.98;64.88;100215.28;4907105;29;20055;-67
2023/06/09 08:38:34;;;;;;;5.45;2.90;;;;;;;23.89;63.34;100201.38;4905136;29;20044;-66
2023/06/09 08:41:08;;;;;;;6.07;2.70;;;;;;;24.01;56.11;100208.19;4912273;29;20040;-66
2023/06/09 08:43:34;;;;;;;5.43;2.72;;;;;;;24.05;57.11;100201.91;4910704;29;20024;-68
2023/06/09 08:46:01;;;;;;;6.25;2.90;;;;;;;24.15;59.90;100194.66;4910178;29;20060;-68
2023/06/09 08:48:30;;;;;;;6.15;3.05;;;;;;;24.28;61.24;100189.94;4903849;29;20033;-66
2023/06/09 08:50:57;;;;;;;7.07;2.80;;;;;;;24.40;58.65;100191.44;4905201;29;20036;-68
2023/06/09 08:53:24;;;;;;;6.38;2.75;;;;;;;24.47;63.94;100193.00;4903633;29;20478;-68
2023/06/09 08:55:52;;;;;;;8.88;2.92;;;;;;;24.41;62.37;100197.56;4907956;29;20031;-68
2023/06/09 08:58:18;;;;;;;6.63;2.90;;;;;;;24.28;64.80;100189.94;4892439;29;20452;-67
2023/06/09 09:00:44;;;;;;;8.07;3.10;;;;;;;24.22;60.83;100187.47;4909926;29;20024;-67
2023/06/09 09:03:09;;;;;;;6.10;3.33;;;;;;;24.09;61.68;100171.06;4910537;29;20032;-67
2023/06/09 09:05:35;;;;;;;6.47;2.80;;;;;;;24.21;60.33;100170.78;4900960;29;20514;-68
2023/06/09 09:08:00;;;;;;;5.85;2.47;;;;;;;24.51;56.05;100193.78;4864912;29;20044;-67
2023/06/09 09:10:27;;;;;;;5.60;2.50;;;;;;;24.74;55.54;100187.94;4865680;29;20044;-68
2023/06/09 09:12:59;;;;;;;5.78;2.92;;;;;;;24.50;58.99;100166.53;4900649;29;20028;-68
2023/06/09 09:15:28;;;;;;;5.13;2.78;;;;;;;24.50;58.08;100134.00;4901593;29;20475;-68
2023/06/09 09:17:53;;;;;;;4.35;2.95;;;;;;;24.84;58.91;100164.81;4914675;29;20107;-67
2023/06/09 09:20:30;;;;;;;5.97;2.92;;;;;;;24.91;55.14;100155.81;4914276;29;20566;-67
2023/06/09 09:22:56;;;;;;;8.55;2.70;;;;;;;24.96;53.96;100169.78;4914552;29;20108;-68
2023/06/09 09:25:27;;;;;;;6.78;2.83;;;;;;;24.74;57.38;100097.34;4914441;29;20032;-69
2023/06/09 09:27:58;;;;;;;7.97;2.83;;;;;;;25.39;52.84;100175.63;4913618;29;20029;-68
2023/06/09 09:30:49;;;;;;;7.55;2.70;;;;;;;25.28;51.96;100122.19;4913654;29;20043;-70
2023/06/09 09:33:19;;;;;;;5.25;2.65;;;;;;;25.67;52.41;100162.47;4914632;29;20041;-69
2023/06/09 09:35:53;;;;;;;8.05;2.53;;;;;;;25.78;53.11;100163.91;4914154;29;20060;-68
2023/06/09 09:38:36;;;;;;;7.10;3.08;;;;;;;25.92;54.39;100160.81;4914066;29;20043;-69
2023/06/09 09:41:04;;;;;;;8.30;2.50;;;;;;;25.98;48.27;100150.91;4914492;29;20031;-68
2023/06/09 09:43:30;;;;;;;9.73;3.13;;;;;;;25.96;51.10;100144.81;4904012;29;20040;-69
2023/06/09 09:46:01;;;;;;;5.00;2.47;;;;;;;26.12;53.98;100157.56;4903343;29;20061;-69
2023/06/09 09:48:26;;;;;;;6.75;3.03;;;;;;;25.85;51.32;100086.09;4913481;29;20510;-68
2023/06/09 09:50:54;;;;;;;7.75;2.70;;;;;;;26.34;50.65;100163.00;4913433;29;20048;-67
2023/06/09 09:53:23;;;;;;;5.80;2.63;;;;;;;26.38;47.48;100151.41;4914429;29;20518;-67
2023/06/09 09:55:54;;;;;;;5.93;2.30;;;;;;;26.57;49.40;100142.84;4914479;29;20139;-66
2023/06/09 09:58:33;;;;;;;9.45;2.83;;;;;;;26.33;45.16;100071.28;4914430;29;20040;-68
2023/06/09 10:01:03;;;;;;;7.10;2.58;;;;;;;26.91;45.54;100134.56;4913702;29;20115;-67
2023/06/09 10:03:30;;;;;;;5.43;2.85;;;;;;;26.73;45.06;100069.00;4912388;29;20044;-67
2023/06/09 10:05:57;;;;;;;8.68;2.95;;;;;;;27.12;48.90;100129.44;4913785;29;20043;-65
2023/06/09 10:08:28;;;;;;;5.03;2.65;;;;;;;27.11;44.96;100117.94;4913260;29;20455;-67
2023/06/09 10:11:02;;;;;;;4.43;2.33;;;;;;;27.13;45.77;100113.47;4913728;29;20550;-67
2023/06/09 10:13:29;;;;;;;9.02;2.70;;;;;;;27.20;47.93;100111.44;4912612;29;20487;-67
2023/06/09 10:15:56;;;;;;;5.75;3.30;;;;;;;27.48;49.58;100114.84;4913416;29;20040;-67
2023/06/09 10:18:22;;;;;;;7.97;3.08;;;;;;;27.67;48.58;100122.94;4913163;29;20044;-66
2023/06/09 10:20:50;;;;;;;7.93;2.90;;;;;;;27.54;48.77;100085.44;4913269;29;20491;-66
2023/06/09 10:23:17;;;;;;;5.78;3.00;;;;;;;27.77;47.35;100111.88;4913527;29;20056;-68
2023/06/09 10:25:47;;;;;;;7.63;2.80;;;;;;;28.01;46.97;100118.91;4904797;29;20078;-67
2023/06/09 10:28:12;;;;;;;6.68;2.70;;;;;;;27.97;45.92;100077.53;4905037;29;20027;-67
2023/06/09 10:30:38;;;;;;;8.30;2.80;;;;;;;28.20;41.35;100103.13;4903859;29;20036;-67
2023/06/09 10:33:18;;;;;;;6.85;3.10;;;;;;;28.17;43.41;100112.06;4903155;29;20032;-67
2023/06/09 10:35:46;;;;;;;9.18;3.38;;;;;;;28.41;47.45;100101.34;4913710;29;20095;-66
2023/06/09 10:38:40;;;;;;;6.90;2.65;;;;;;;28.51;43.30;100100.03;4912851;29;20043;-66
2023/06/09 10:41:11;;;;;;;4.78;2.80;;;;;;;28.51;41.09;100086.75;4912559;29;20512;-67
2023/06/09 10:43:46;;;;;;;9.35;3.55;;;;;;;28.15;44.10;100036.97;4914349;29;20036;-68
2023/06/09 10:46:13;;;;;;;9.18;2.92;;;;;;;28.31;43.46;100057.53;4913456;29;20056;-68
2023/06/09 10:48:53;;;;;;;6.68;3.22;;;;;;;28.65;43.26;100094.09;4913273;29;20020;-67
2023/06/09 10:51:26;;;;;;;5.22;3.30;;;;;;;28.85;42.41;100093.22;4879538;29;20541;-65
2023/06/09 10:54:12;;;;;;;4.90;2.60;;;;;;;28.94;39.11;100085.78;4913674;29;20028;-66
2023/06/09 10:56:42;;;;;;;8.80;2.90;;;;;;;28.86;42.09;100080.78;4913514;29;20036;-66
2023/06/09 10:59:30;;;;;;;5.45;3.03;;;;;;;28.94;41.53;100068.03;4913026;29;20068;-66
2023/06/09 11:02:05;;;;;;;8.18;3.30;;;;;;;29.12;40.77;100090.22;4836639;29;20042;-67
2023/06/09 11:04:57;;;;;;;7.03;3.70;;;;;;;28.98;42.60;100026.25;4836518;29;20030;-67
2023/06/09 11:07:27;;;;;;;7.43;2.70;;;;;;;29.42;41.62;100084.41;4781544;30;20511;-67
2023/06/09 11:09:56;;;;;;;5.85;2.75;;;;;;;29.46;41.29;100091.34;4781810;30;20093;-66
2023/06/09 11:12:24;;;;;;;6.13;2.90;;;;;;;29.61;42.26;100084.41;4781677;29;20039;-66
2023/06/09 11:14:57;;;;;;;7.15;3.00;;;;;;;29.74;42.11;100089.13;4781908;30;20046;-67
2023/06/09 11:17:30;;;;;;;5.47;2.70;;;;;;;29.65;38.58;100064.69;4782150;30;20539;-67
2023/06/09 11:22:34;;;;;;;9.90;3.13;;;;;;;29.52;41.53;100072.44;4785088;29;20423;-68
2023/06/09 11:24:59;;;;;;;6.75;2.70;;;;;;;29.30;41.40;100006.13;4785561;30;20085;-67
2023/06/09 11:27:25;;;;;;;5.40;3.15;;;;;;;29.57;41.43;100007.50;4785387;29;20130;-67